Time;durP1;ratioP1;P1;durP2;ratioP2;P2;SDS_P1;SDS_P2;PMS_P1;PMS_P2;Temp;Humidity;BMP_temperature;BMP_pressure;BME280_temperature;BME280_humidity;BME280_pressure;Samples;Min_cycle;Max_cycle;Signal;HPM_P1;HPM_P2
2021/04/24 00:00:12;;;;;;;10.68;6.38;;;;;;;6.67;67.92;102911.97;5138103;27;20474;-40
2021/04/24 00:02:39;;;;;;;10.25;6.15;;;;;;;6.59;68.22;102904.69;5137480;27;20126;-41
2021/04/24 00:05:09;;;;;;;11.00;6.38;;;;;;;6.57;67.89;102912.03;5137804;27;20023;-40
2021/04/24 00:07:34;;;;;;;9.82;6.75;;;;;;;6.54;68.25;102906.13;5137675;27;20028;-41
2021/04/24 00:09:59;;;;;;;11.00;6.60;;;;;;;6.37;68.28;102915.88;5138498;27;20024;-41
2021/04/24 00:12:25;;;;;;;11.50;7.30;;;;;;;6.23;69.19;102919.09;5138354;27;20101;-48
2021/04/24 00:14:50;;;;;;;10.37;7.00;;;;;;;6.17;69.28;102909.81;5137380;27;20023;-41
2021/04/24 00:17:16;;;;;;;10.23;6.57;;;;;;;6.26;68.25;102911.59;5137466;27;20045;-41
2021/04/24 00:19:41;;;;;;;11.73;6.33;;;;;;;6.13;68.76;102908.41;5137778;27;20273;-41
2021/04/24 00:22:06;;;;;;;8.13;6.63;;;;;;;6.07;69.79;102900.97;5137964;27;20027;-41
2021/04/24 00:24:32;;;;;;;11.87;7.43;;;;;;;6.02;69.55;102911.31;5137449;27;20264;-40
2021/04/24 00:26:57;;;;;;;9.37;6.50;;;;;;;6.08;69.14;102910.72;5137394;27;20073;-41
2021/04/24 00:29:22;;;;;;;12.47;6.47;;;;;;;6.13;68.57;102913.78;5137885;27;20057;-40
2021/04/24 00:31:48;;;;;;;11.87;6.60;;;;;;;6.13;68.30;102919.16;5138066;27;20145;-41
2021/04/24 00:34:13;;;;;;;11.07;6.73;;;;;;;6.11;68.33;102915.78;5137656;27;20055;-41
2021/04/24 00:36:38;;;;;;;9.33;6.37;;;;;;;6.13;68.05;102913.78;5136902;27;20059;-41
2021/04/24 00:39:05;;;;;;;12.33;6.50;;;;;;;5.98;68.56;102909.91;5137211;27;20035;-40
2021/04/24 00:41:30;;;;;;;;;;;;;;;5.97;68.48;102913.59;5137651;27;20027;-41
2021/04/24 00:43:55;;;;;;;12.27;6.80;;;;;;;5.83;68.59;102913.06;5137070;27;19907;-40
2021/04/24 00:46:21;;;;;;;8.87;6.70;;;;;;;5.83;68.41;102914.91;5137368;27;20023;-41
2021/04/24 00:48:46;;;;;;;13.13;7.00;;;;;;;5.72;68.91;102910.59;5136939;27;20027;-41
2021/04/24 00:51:11;;;;;;;11.23;6.27;;;;;;;5.79;68.43;102911.69;5135255;27;20035;-40
2021/04/24 00:53:37;;;;;;;9.20;6.03;;;;;;;5.89;67.93;102912.47;5137408;27;20027;-40
2021/04/24 00:56:06;;;;;;;10.30;7.10;;;;;;;5.77;68.76;102916.38;5137141;27;20420;-40
2021/04/24 00:58:34;;;;;;;9.68;6.82;;;;;;;5.76;68.29;102906.63;5136494;27;20023;-40
2021/04/24 01:01:00;;;;;;;10.20;7.10;;;;;;;5.76;68.51;102906.63;5137057;27;20095;-40
2021/04/24 01:03:25;;;;;;;10.48;6.82;;;;;;;5.79;68.15;102910.84;5135429;27;20034;-40
2021/04/24 01:05:51;;;;;;;8.83;6.50;;;;;;;5.83;67.92;102905.03;5136558;27;20027;-40
2021/04/24 01:08:16;;;;;;;8.80;6.20;;;;;;;5.78;68.27;102907.31;5136310;27;20386;-41
2021/04/24 01:10:44;;;;;;;12.50;6.93;;;;;;;5.80;68.35;102899.94;5136519;27;20050;-41
2021/04/24 01:13:11;;;;;;;9.63;6.72;;;;;;;5.76;68.27;102895.00;5136899;27;20477;-41
2021/04/24 01:15:37;;;;;;;12.70;7.97;;;;;;;5.57;68.90;102887.94;5136132;27;20489;-41
2021/04/24 01:18:06;;;;;;;10.52;6.50;;;;;;;5.61;68.82;102894.66;5135977;27;20114;-40
2021/04/24 01:20:33;;;;;;;10.55;6.25;;;;;;;5.60;68.46;102892.97;5136372;27;20042;-41
2021/04/24 01:22:58;;;;;;;10.35;6.78;;;;;;;5.44;69.05;102885.56;5136558;27;20097;-40
2021/04/24 01:25:25;;;;;;;10.07;6.73;;;;;;;5.37;69.11;102888.00;5136645;27;20110;-40
2021/04/24 01:27:56;;;;;;;12.60;6.63;;;;;;;5.34;68.94;102882.91;5136235;27;20035;-40
2021/04/24 01:30:34;;;;;;;9.95;6.72;;;;;;;5.33;69.32;102886.59;5136491;27;20035;-40
2021/04/24 01:33:00;;;;;;;11.80;6.97;;;;;;;5.46;69.12;102885.41;5136942;27;20023;-40
2021/04/24 01:35:29;;;;;;;10.50;6.70;;;;;;;5.54;68.59;102888.22;5135920;27;20030;-40
2021/04/24 01:37:55;;;;;;;9.48;7.05;;;;;;;5.31;69.54;102874.31;5135876;27;20375;-40
2021/04/24 01:40:21;;;;;;;;;;;;;;;5.48;67.61;102880.75;5136196;27;20038;-40
2021/04/24 01:42:47;;;;;;;10.05;7.15;;;;;;;5.10;70.04;102871.84;5135610;27;19907;-40
2021/04/24 01:45:14;;;;;;;9.57;7.27;;;;;;;5.23;69.59;102877.75;5136689;27;20156;-40
2021/04/24 01:47:42;;;;;;;14.32;7.40;;;;;;;5.24;69.57;102875.91;5135983;27;20280;-40
2021/04/24 01:50:13;;;;;;;11.75;6.90;;;;;;;5.24;69.92;102871.38;5135824;27;20131;-40
2021/04/24 01:52:42;;;;;;;10.95;6.57;;;;;;;5.26;69.34;102874.75;5136081;27;20124;-40
2021/04/24 01:55:12;;;;;;;10.93;7.10;;;;;;;5.27;69.52;102878.28;5135737;27;20401;-40
2021/04/24 01:57:43;;;;;;;10.77;7.05;;;;;;;5.32;68.88;102882.22;5135611;27;20027;-40
2021/04/24 02:00:11;;;;;;;9.77;6.65;;;;;;;5.39;68.85;102882.47;5135871;27;20070;-40
2021/04/24 02:02:37;;;;;;;10.05;6.85;;;;;;;5.37;68.61;102879.13;5135752;27;20035;-40
2021/04/24 02:05:06;;;;;;;9.15;6.72;;;;;;;5.42;68.71;102879.50;5136277;27;20070;-40
2021/04/24 02:07:32;;;;;;;9.73;6.85;;;;;;;5.42;68.29;102876.84;5135035;27;20110;-40
2021/04/24 02:09:57;;;;;;;12.48;6.93;;;;;;;5.30;68.84;102884.19;5135946;27;20062;-40
2021/04/24 02:12:22;;;;;;;9.63;6.90;;;;;;;5.33;68.59;102878.56;5135082;27;20469;-41
2021/04/24 02:14:50;;;;;;;9.63;6.93;;;;;;;5.18;68.88;102876.50;5135167;27;20097;-41
2021/04/24 02:17:22;;;;;;;10.65;6.30;;;;;;;5.21;68.97;102871.66;5135174;27;20064;-40
2021/04/24 02:19:51;;;;;;;11.35;7.13;;;;;;;5.07;69.73;102886.38;5135235;27;20047;-40
2021/04/24 02:22:18;;;;;;;11.50;7.03;;;;;;;5.10;69.22;102880.72;5135161;27;20083;-40
2021/04/24 02:24:48;;;;;;;12.50;6.78;;;;;;;5.11;69.48;102889.63;5134871;27;20034;-40
2021/04/24 02:27:14;;;;;;;10.35;6.50;;;;;;;5.04;69.51;102885.84;5135951;27;20031;-40
2021/04/24 02:29:41;;;;;;;15.60;6.85;;;;;;;4.94;69.77;102882.34;5135352;27;20111;-40
2021/04/24 02:32:07;;;;;;;11.77;7.60;;;;;;;4.92;70.25;102885.13;5135446;27;20046;-40
2021/04/24 02:34:33;;;;;;;12.25;6.80;;;;;;;4.85;70.09;102887.56;5135499;27;20461;-40
2021/04/24 02:36:58;;;;;;;;;;;;;;;5.02;68.76;102887.81;5135244;27;20023;-40
2021/04/24 02:39:31;;;;;;;10.52;6.43;;;;;;;4.98;69.79;102891.75;5135412;27;19918;-40
2021/04/24 02:41:58;;;;;;;8.00;6.72;;;;;;;4.90;70.24;102900.53;5135336;27;20034;-40
2021/04/24 02:44:23;;;;;;;;;;;;;;;5.01;69.29;102896.84;5135178;27;20510;-40
2021/04/24 02:46:49;;;;;;;13.70;7.03;;;;;;;4.96;69.29;102896.44;5135001;27;19912;-40
2021/04/24 02:49:14;;;;;;;9.95;6.78;;;;;;;4.93;70.02;102888.66;5134663;27;20102;-40
2021/04/24 02:51:40;;;;;;;9.37;6.73;;;;;;;4.97;69.78;102887.41;5134714;27;20463;-40
2021/04/24 02:54:05;;;;;;;11.80;6.97;;;;;;;4.91;69.57;102886.97;5134533;27;20360;-40
2021/04/24 02:56:31;;;;;;;10.82;7.18;;;;;;;4.85;70.14;102895.59;5135014;27;20023;-40
2021/04/24 02:58:56;;;;;;;15.17;7.03;;;;;;;4.83;70.25;102889.56;5134590;27;20478;-40
2021/04/24 03:01:21;;;;;;;10.80;7.47;;;;;;;4.75;71.01;102893.94;5134857;27;20069;-40
2021/04/24 03:03:46;;;;;;;10.57;7.53;;;;;;;4.64;71.06;102895.78;5134509;27;20031;-40
2021/04/24 03:06:12;;;;;;;11.57;8.00;;;;;;;4.54;71.96;102897.63;5134483;27;20038;-40
2021/04/24 03:08:37;;;;;;;12.27;8.13;;;;;;;4.50;71.83;102892.69;5134149;27;20031;-40
2021/04/24 03:11:02;;;;;;;9.37;6.73;;;;;;;4.61;71.43;102881.81;5134443;27;20033;-40
2021/04/24 03:13:28;;;;;;;11.60;7.63;;;;;;;4.68;71.19;102882.06;5133444;27;20027;-40
2021/04/24 03:15:53;;;;;;;11.67;7.47;;;;;;;4.75;70.91;102877.84;5134876;27;20058;-40
2021/04/24 03:18:18;;;;;;;10.60;7.60;;;;;;;4.79;70.49;102880.09;5134244;27;20058;-40
2021/04/24 03:20:44;;;;;;;10.47;7.73;;;;;;;4.78;71.06;102880.22;5133927;27;20075;-40
2021/04/24 03:23:09;;;;;;;10.23;6.80;;;;;;;4.63;71.29;102885.19;5133980;27;20031;-40
2021/04/24 03:25:35;;;;;;;10.30;7.30;;;;;;;4.64;71.01;102884.22;5137826;27;20391;-40
2021/04/24 03:28:00;;;;;;;10.73;7.32;;;;;;;4.70;71.17;102886.31;5141618;27;20337;-40
2021/04/24 03:30:26;;;;;;;11.73;6.77;;;;;;;4.70;71.16;102883.63;5141920;27;20019;-40
2021/04/24 03:32:51;;;;;;;10.15;7.20;;;;;;;4.72;71.29;102894.19;5140962;27;20046;-40
2021/04/24 03:35:17;;;;;;;9.90;6.83;;;;;;;4.65;70.59;102886.75;5141338;27;20391;-40
2021/04/24 03:37:42;;;;;;;11.03;7.40;;;;;;;4.56;71.55;102889.44;5140623;27;20083;-40
2021/04/24 03:40:08;;;;;;;9.57;6.80;;;;;;;4.49;71.32;102881.13;5140923;27;20479;-40
2021/04/24 03:42:34;;;;;;;13.02;7.63;;;;;;;4.60;71.09;102888.16;5140708;27;20020;-40
2021/04/24 03:44:59;;;;;;;10.05;7.13;;;;;;;4.62;70.93;102888.84;5140891;27;20019;-40
2021/04/24 03:47:25;;;;;;;11.43;6.87;;;;;;;4.64;71.21;102887.72;5140917;27;20054;-40
2021/04/24 03:49:50;;;;;;;10.60;7.40;;;;;;;4.61;71.13;102885.31;5141131;27;20494;-40
2021/04/24 03:52:15;;;;;;;8.93;7.20;;;;;;;4.62;70.67;102883.50;5140909;27;20049;-40
2021/04/24 03:54:41;;;;;;;12.27;6.87;;;;;;;4.67;71.00;102881.22;5141153;27;20027;-41
2021/04/24 03:57:06;;;;;;;11.33;7.60;;;;;;;4.53;71.39;102879.81;5140720;27;20072;-40
2021/04/24 03:59:32;;;;;;;15.00;7.73;;;;;;;4.51;71.65;102878.28;5140836;27;20027;-40
2021/04/24 04:01:57;;;;;;;9.77;7.72;;;;;;;4.46;71.27;102877.88;5141328;27;20112;-40
2021/04/24 04:04:22;;;;;;;13.60;8.07;;;;;;;4.38;70.97;102878.56;5141046;27;20077;-40
2021/04/24 04:06:48;;;;;;;18.23;8.20;;;;;;;4.32;71.86;102881.81;5141219;27;20074;-40
2021/04/24 04:09:13;;;;;;;12.30;7.53;;;;;;;4.27;72.36;102882.22;5140960;27;20019;-40
2021/04/24 04:11:38;;;;;;;10.40;7.33;;;;;;;4.25;72.68;102886.03;5140661;27;20429;-40
2021/04/24 04:14:04;;;;;;;15.47;7.80;;;;;;;4.25;72.14;102881.53;5141309;27;20028;-40
2021/04/24 04:16:29;;;;;;;11.77;7.50;;;;;;;4.25;72.35;102894.91;5138911;27;20031;-40
2021/04/24 04:18:54;;;;;;;13.73;7.30;;;;;;;4.24;72.26;102887.84;5140372;27;20031;-40
2021/04/24 04:21:20;;;;;;;12.17;7.33;;;;;;;4.25;72.36;102888.72;5140655;27;20027;-40
2021/04/24 04:23:46;;;;;;;12.60;7.28;;;;;;;4.20;71.74;102882.91;5140289;27;20046;-40
2021/04/24 04:26:11;;;;;;;14.97;8.43;;;;;;;4.21;72.88;102896.19;5140823;27;20019;-40
2021/04/24 04:28:36;;;;;;;10.50;7.67;;;;;;;4.08;72.88;102893.75;5140509;27;20218;-40
2021/04/24 04:31:02;;;;;;;10.70;7.43;;;;;;;4.11;72.89;102901.50;5140292;27;20102;-40
2021/04/24 04:33:27;;;;;;;12.77;8.00;;;;;;;4.07;72.87;102893.91;5140185;27;20030;-40
2021/04/24 04:35:53;;;;;;;12.00;8.00;;;;;;;4.02;72.87;102907.69;5140367;27;20096;-40
2021/04/24 04:38:18;;;;;;;11.90;7.43;;;;;;;4.02;73.56;102904.19;5137071;27;20087;-40
2021/04/24 04:40:45;;;;;;;11.27;7.70;;;;;;;4.07;73.31;102900.09;5138058;27;20365;-40
2021/04/24 04:43:12;;;;;;;12.93;8.15;;;;;;;4.01;73.43;102902.50;5137785;27;20382;-40
2021/04/24 04:45:37;;;;;;;;;;;;;;;4.13;71.75;102907.56;5138062;27;20087;-41
2021/04/24 04:48:03;;;;;;;11.13;7.50;;;;;;;4.06;73.07;102910.94;5137571;27;19914;-39
2021/04/24 04:50:33;;;;;;;12.23;8.10;;;;;;;4.08;73.47;102912.50;5137001;27;20260;-40
2021/04/24 04:52:59;;;;;;;12.77;8.02;;;;;;;4.10;73.29;102909.69;5136836;27;20023;-40
2021/04/24 04:55:25;;;;;;;11.93;7.82;;;;;;;4.10;73.01;102909.69;5137437;27;20152;-40
2021/04/24 04:57:50;;;;;;;;;;;;;;;4.26;71.54;102906.47;5137168;27;20056;-40
2021/04/24 05:00:18;;;;;;;11.95;7.55;;;;;;;4.14;72.80;102903.06;5137154;27;19990;-40
2021/04/24 05:02:44;;;;;;;12.13;8.70;;;;;;;4.17;73.01;102900.13;5136453;27;20053;-40
2021/04/24 05:05:10;;;;;;;12.02;7.88;;;;;;;4.26;72.95;102904.63;5137441;27;20031;-40
2021/04/24 05:07:36;;;;;;;16.63;8.32;;;;;;;4.28;73.01;102897.28;5136837;27;20114;-40
2021/04/24 05:10:02;;;;;;;12.60;8.00;;;;;;;4.29;73.22;102898.97;5137198;27;20419;-39
2021/04/24 05:12:28;;;;;;;14.65;8.70;;;;;;;4.27;73.43;102900.97;5136190;27;20440;-39
2021/04/24 05:14:53;;;;;;;10.57;7.67;;;;;;;4.37;73.02;102899.13;5136871;27;20032;-39
2021/04/24 05:17:18;;;;;;;11.90;8.23;;;;;;;4.29;73.42;102903.50;5136407;27;20454;-39
2021/04/24 05:19:44;;;;;;;11.53;8.17;;;;;;;4.36;72.81;102905.50;5136475;27;20019;-39
2021/04/24 05:22:10;;;;;;;12.90;7.63;;;;;;;4.29;73.51;102898.97;5136326;27;20027;-39
2021/04/24 05:24:35;;;;;;;10.57;7.90;;;;;;;4.42;72.98;102905.91;5136355;27;20030;-39
2021/04/24 05:27:01;;;;;;;15.63;8.77;;;;;;;4.36;73.68;102913.53;5135952;27;20039;-39
2021/04/24 05:29:27;;;;;;;13.73;9.13;;;;;;;4.38;72.99;102916.91;5136252;27;20020;-39
2021/04/24 05:31:53;;;;;;;13.38;8.90;;;;;;;4.37;73.11;102915.22;5136406;27;20035;-39
2021/04/24 05:34:18;;;;;;;11.23;8.55;;;;;;;4.44;72.53;102914.66;5135993;27;20034;-39
2021/04/24 05:36:43;;;;;;;15.37;8.77;;;;;;;4.54;72.85;102910.13;5136745;27;20027;-39
2021/04/24 05:39:09;;;;;;;13.73;9.47;;;;;;;4.44;73.64;102915.53;5136250;27;20027;-39
2021/04/24 05:41:36;;;;;;;12.33;8.43;;;;;;;4.41;73.96;102918.47;5136315;27;20019;-40
2021/04/24 05:44:02;;;;;;;15.85;9.00;;;;;;;4.45;74.02;102919.88;5135523;27;20027;-40
2021/04/24 05:46:27;;;;;;;13.15;8.52;;;;;;;4.46;74.38;102923.41;5136172;27;20039;-40
2021/04/24 05:48:53;;;;;;;12.15;8.98;;;;;;;4.68;74.10;102923.13;5136165;27;20345;-40
2021/04/24 05:51:19;;;;;;;11.40;8.70;;;;;;;4.83;73.92;102924.41;5136340;27;20083;-40
2021/04/24 05:53:45;;;;;;;;;;;;;;;5.06;72.61;102919.56;5136137;27;20031;-40
2021/04/24 05:56:11;;;;;;;15.18;9.07;;;;;;;4.98;73.46;102922.13;5136020;27;19927;-40
2021/04/24 05:58:37;;;;;;;14.20;8.90;;;;;;;5.07;73.13;102925.75;5135287;27;20046;-40
2021/04/24 06:01:02;;;;;;;15.82;9.57;;;;;;;5.02;73.20;102919.97;5135147;27;20051;-40
2021/04/24 06:03:28;;;;;;;15.70;9.37;;;;;;;4.89;73.67;102925.66;5135794;27;20064;-39
2021/04/24 06:05:53;;;;;;;16.33;9.07;;;;;;;5.06;74.17;102929.44;5135646;27;20053;-40
2021/04/24 06:08:18;;;;;;;15.43;9.33;;;;;;;5.11;74.10;102928.00;5135179;27;20035;-39
2021/04/24 06:10:44;;;;;;;14.50;8.90;;;;;;;5.25;73.52;102925.88;5135811;27;20102;-40
2021/04/24 06:13:09;;;;;;;16.13;9.47;;;;;;;5.29;74.23;102925.44;5135977;27;20420;-40
2021/04/24 06:15:35;;;;;;;14.20;10.03;;;;;;;5.35;73.66;102932.06;5136158;27;20067;-40
2021/04/24 06:18:00;;;;;;;14.73;9.50;;;;;;;5.45;72.92;102934.72;5135214;27;20422;-40
2021/04/24 06:20:25;;;;;;;13.40;9.83;;;;;;;5.47;73.90;102927.38;5135547;27;20037;-40
2021/04/24 06:22:51;;;;;;;17.10;9.90;;;;;;;5.57;73.13;102929.03;5135032;27;20020;-40
2021/04/24 06:25:18;;;;;;;16.67;10.40;;;;;;;5.72;72.75;102932.06;5135452;27;20055;-40
2021/04/24 06:27:44;;;;;;;16.67;9.75;;;;;;;5.90;72.25;102930.28;5134845;27;20058;-40
2021/04/24 06:30:11;;;;;;;;;;;;;;;6.11;72.05;102922.00;5135237;27;20071;-40
2021/04/24 06:32:36;;;;;;;15.73;10.50;;;;;;;6.04;72.32;102934.31;5133171;27;19975;-40
2021/04/24 06:35:07;;;;;;;13.32;8.88;;;;;;;6.25;72.01;102928.72;5134433;27;20268;-40
2021/04/24 06:37:33;;;;;;;12.02;9.20;;;;;;;6.45;71.63;102929.41;5134744;27;20375;-40
2021/04/24 06:39:58;;;;;;;;;;;;;;;6.52;71.84;102929.63;5134828;27;20038;-40
2021/04/24 06:42:24;;;;;;;18.15;8.55;;;;;;;6.39;70.26;102928.19;5134577;27;19908;-40
2021/04/24 06:44:49;;;;;;;16.67;10.17;;;;;;;6.29;71.55;102930.06;5134682;27;20023;-40
2021/04/24 06:47:15;;;;;;;14.17;8.93;;;;;;;6.38;71.10;102921.09;5134594;27;20023;-40
2021/04/24 06:49:40;;;;;;;13.70;9.27;;;;;;;6.36;70.73;102923.09;5135426;27;20023;-40
2021/04/24 06:52:06;;;;;;;14.93;9.23;;;;;;;6.48;70.79;102922.88;5135507;27;20027;-40
2021/04/24 06:54:32;;;;;;;13.43;9.50;;;;;;;6.52;70.45;102925.09;5135010;27;20279;-40
2021/04/24 06:56:57;;;;;;;14.43;9.65;;;;;;;6.59;70.58;102919.97;5134782;27;20047;-40
2021/04/24 06:59:23;;;;;;;13.70;9.07;;;;;;;6.80;70.61;102923.16;5134046;27;20383;-41
2021/04/24 07:01:48;;;;;;;15.40;9.53;;;;;;;6.95;69.31;102921.63;5134897;27;20422;-41
2021/04/24 07:04:14;;;;;;;14.33;9.07;;;;;;;6.81;68.99;102930.22;5134280;27;20031;-41
2021/04/24 07:06:39;;;;;;;13.90;9.47;;;;;;;6.82;68.71;102928.38;5135072;27;20280;-41
2021/04/24 07:09:05;;;;;;;14.00;8.03;;;;;;;6.92;69.56;102921.06;5132748;27;20041;-39
2021/04/24 07:11:30;;;;;;;14.45;8.25;;;;;;;6.93;69.68;102925.47;5134798;27;20321;-40
2021/04/24 07:13:56;;;;;;;13.13;8.53;;;;;;;7.01;69.15;102930.06;5134588;27;20448;-39
2021/04/24 07:16:21;;;;;;;15.07;8.70;;;;;;;7.12;69.40;102929.78;5134543;27;20463;-40
2021/04/24 07:18:46;;;;;;;10.83;7.63;;;;;;;7.19;68.56;102912.88;5134368;27;20055;-40
2021/04/24 07:21:11;;;;;;;13.57;8.60;;;;;;;7.32;68.14;102916.97;5134313;27;20532;-39
2021/04/24 07:23:40;;;;;;;12.83;8.40;;;;;;;7.39;68.08;102924.25;5134295;27;20067;-40
2021/04/24 07:26:07;;;;;;;13.23;7.63;;;;;;;7.47;66.83;102915.41;5134154;27;20420;-40
2021/04/24 07:28:32;;;;;;;12.63;7.85;;;;;;;7.40;66.51;102915.19;5133858;27;20467;-40
2021/04/24 07:30:57;;;;;;;11.43;7.23;;;;;;;7.54;66.34;102916.44;5133953;27;20031;-40
2021/04/24 07:33:23;;;;;;;11.87;7.03;;;;;;;7.61;65.93;102917.50;5134481;27;20031;-40
2021/04/24 07:35:53;;;;;;;12.38;7.32;;;;;;;7.66;65.41;102917.00;5134684;27;20015;-40
2021/04/24 07:38:19;;;;;;;7.63;6.60;;;;;;;7.80;65.55;102911.00;5133993;27;20031;-40
2021/04/24 07:40:45;;;;;;;12.63;7.22;;;;;;;7.85;64.53;102913.19;5134108;27;20401;-40
2021/04/24 07:43:11;;;;;;;8.98;6.03;;;;;;;7.96;64.06;102908.38;5134528;27;20031;-40
2021/04/24 07:45:37;;;;;;;13.35;7.40;;;;;;;7.95;63.85;102911.22;5134871;27;20046;-40
2021/04/24 07:48:03;;;;;;;15.10;7.03;;;;;;;7.97;63.69;102907.38;5134836;27;20363;-40
2021/04/24 07:50:28;;;;;;;;;;;;;;;8.14;63.53;102902.84;5135055;27;20404;-39
2021/04/24 07:52:54;;;;;;;9.20;5.90;;;;;;;8.28;63.50;102909.47;5133702;27;19959;-40
2021/04/24 07:55:19;;;;;;;9.13;5.53;;;;;;;8.30;63.15;102902.06;5134303;27;20058;-40
2021/04/24 07:57:45;;;;;;;10.03;6.13;;;;;;;8.30;61.44;102907.47;5133949;27;20027;-40
2021/04/24 08:00:11;;;;;;;8.57;5.50;;;;;;;8.38;61.11;102899.41;5134204;27;20038;-40
2021/04/24 08:02:36;;;;;;;;;;;;;;;8.51;60.22;102894.38;5134517;27;20039;-40
2021/04/24 08:05:03;;;;;;;7.43;4.83;;;;;;;8.61;61.26;102890.66;5133569;28;20363;-40
2021/04/24 08:07:29;;;;;;;6.57;4.35;;;;;;;8.76;60.08;102892.50;5133484;27;20060;-40
2021/04/24 08:09:54;;;;;;;7.97;5.10;;;;;;;8.71;58.60;102888.63;5134494;27;20023;-40
2021/04/24 08:12:20;;;;;;;6.88;4.15;;;;;;;8.66;58.43;102888.31;5136820;27;20027;-40
2021/04/24 08:14:45;;;;;;;6.93;4.13;;;;;;;8.66;57.12;102886.44;5137698;27;20050;-40
2021/04/24 08:17:13;;;;;;;6.03;3.83;;;;;;;8.83;56.62;102887.28;5137326;27;20023;-40
2021/04/24 08:19:38;;;;;;;7.95;4.20;;;;;;;8.91;56.84;102886.44;5138374;27;20029;-40
2021/04/24 08:22:06;;;;;;;6.07;3.13;;;;;;;9.10;56.97;102893.34;5137614;27;20027;-41
2021/04/24 08:24:31;;;;;;;6.65;4.10;;;;;;;9.13;54.42;102891.13;5138288;27;20404;-40
2021/04/24 08:26:56;;;;;;;5.23;3.37;;;;;;;9.20;53.74;102897.53;5137508;27;20074;-40
2021/04/24 08:29:21;;;;;;;7.60;3.47;;;;;;;9.13;54.23;102893.84;5137693;27;20102;-40
2021/04/24 08:31:47;;;;;;;5.93;3.40;;;;;;;9.07;54.02;102896.34;5137660;27;20083;-40
2021/04/24 08:34:13;;;;;;;6.37;3.80;;;;;;;9.12;54.76;102892.13;5137972;27;20144;-40
2021/04/24 08:36:40;;;;;;;6.72;3.42;;;;;;;9.22;54.96;102886.53;5137251;27;20027;-39
2021/04/24 08:39:06;;;;;;;6.85;4.40;;;;;;;9.34;55.30;102898.69;5137244;27;20375;-39
2021/04/24 08:41:33;;;;;;;6.22;3.78;;;;;;;9.42;55.54;102900.50;5137249;27;20035;-40
2021/04/24 08:43:59;;;;;;;5.32;3.80;;;;;;;9.62;53.95;102898.25;5137160;27;20050;-40
2021/04/24 08:46:25;;;;;;;5.05;3.55;;;;;;;9.67;53.22;102906.69;5137340;27;20053;-40
2021/04/24 08:48:52;;;;;;;5.97;3.40;;;;;;;9.84;53.32;102905.59;5136944;27;20023;-40
2021/04/24 08:51:19;;;;;;;6.38;4.05;;;;;;;10.06;54.14;102894.00;5137068;27;20042;-40
2021/04/24 08:53:45;;;;;;;5.80;3.60;;;;;;;10.18;51.61;102902.53;5136954;27;20035;-40
2021/04/24 08:56:10;;;;;;;5.87;3.83;;;;;;;10.22;52.19;102894.91;5137023;27;20038;-40
2021/04/24 08:58:36;;;;;;;4.93;3.25;;;;;;;10.24;50.95;102898.28;5136838;27;20031;-40
2021/04/24 09:01:01;;;;;;;5.03;3.50;;;;;;;10.10;49.54;102882.81;5136699;27;20081;-41
2021/04/24 09:03:27;;;;;;;5.82;3.63;;;;;;;10.16;50.47;102890.22;5137372;27;20034;-40
2021/04/24 09:05:54;;;;;;;8.53;4.60;;;;;;;10.06;51.14;102898.56;5137629;27;20039;-41
2021/04/24 09:08:28;;;;;;;8.07;3.70;;;;;;;10.32;51.24;102895.53;5136940;27;20118;-41
2021/04/24 09:11:04;;;;;;;5.35;3.30;;;;;;;10.45;51.57;102881.44;5136662;27;20035;-40
2021/04/24 09:13:30;;;;;;;6.03;3.47;;;;;;;10.63;50.78;102875.69;5136255;27;20021;-40
2021/04/24 09:15:55;;;;;;;;;;;;;;;10.66;50.22;102880.75;5137210;27;20019;-40
2021/04/24 09:18:26;;;;;;;5.85;3.33;;;;;;;10.46;48.77;102883.13;5137154;27;20220;-40
2021/04/24 09:20:55;;;;;;;5.45;3.38;;;;;;;10.54;49.64;102875.78;5136470;27;20039;-41
2021/04/24 09:23:35;;;;;;;5.43;3.05;;;;;;;10.68;49.22;102879.53;5135456;27;20031;-40
2021/04/24 09:26:09;;;;;;;6.65;3.20;;;;;;;10.90;48.92;102860.75;5135780;27;20367;-40
2021/04/24 09:28:41;;;;;;;6.05;3.47;;;;;;;11.01;48.44;102868.41;5135986;27;20439;-40
2021/04/24 09:31:14;;;;;;;5.22;3.25;;;;;;;11.05;48.43;102875.16;5136011;27;20023;-40
2021/04/24 09:33:41;;;;;;;5.03;3.45;;;;;;;11.09;49.19;102866.47;5136144;27;20019;-40
2021/04/24 09:36:08;;;;;;;3.92;3.00;;;;;;;11.29;47.30;102866.78;5135882;27;20029;-40
2021/04/24 09:38:42;;;;;;;4.75;3.13;;;;;;;11.27;46.89;102857.13;5136246;27;20471;-40
2021/04/24 09:41:17;;;;;;;4.60;3.17;;;;;;;11.20;47.60;102867.88;5136570;27;20027;-40
2021/04/24 09:43:52;;;;;;;4.57;2.90;;;;;;;11.45;47.02;102857.59;5136496;27;20060;-40
2021/04/24 09:46:17;;;;;;;6.38;3.20;;;;;;;11.42;46.67;102860.72;5135962;27;20463;-40
2021/04/24 09:48:43;;;;;;;4.57;3.13;;;;;;;11.54;46.51;102867.31;5135627;27;20068;-39
2021/04/24 09:51:13;;;;;;;4.70;3.17;;;;;;;11.75;45.79;102865.69;5135858;27;20023;-40
2021/04/24 09:53:38;;;;;;;5.25;2.75;;;;;;;11.88;45.09;102857.75;5135112;27;20095;-40
2021/04/24 09:56:04;;;;;;;4.70;2.63;;;;;;;11.90;45.26;102861.13;5136292;27;20023;-40
2021/04/24 09:58:32;;;;;;;3.28;2.60;;;;;;;11.80;45.05;102864.09;5135965;27;20027;-40
2021/04/24 10:01:21;;;;;;;4.10;3.25;;;;;;;11.53;44.93;102852.09;5135704;27;20023;-40
2021/04/24 10:03:50;;;;;;;3.85;2.75;;;;;;;11.73;44.88;102846.09;5136548;27;20030;-41
2021/04/24 10:06:21;;;;;;;5.30;2.80;;;;;;;11.97;45.01;102853.06;5135327;27;20034;-40
2021/04/24 10:08:48;;;;;;;3.33;2.78;;;;;;;12.19;43.55;102840.38;5135442;27;20023;-40
2021/04/24 10:11:28;;;;;;;3.53;2.42;;;;;;;12.25;44.38;102829.59;5135666;27;20539;-40
2021/04/24 10:13:54;;;;;;;5.55;2.90;;;;;;;12.37;43.31;102838.03;5135649;27;20379;-40
2021/04/24 10:16:42;;;;;;;4.57;2.65;;;;;;;12.43;43.23;102826.41;5135088;27;20067;-40
2021/04/24 10:19:15;;;;;;;3.60;2.50;;;;;;;12.37;42.60;102824.47;5125697;27;20526;-40
2021/04/24 10:21:42;;;;;;;3.25;2.20;;;;;;;12.13;42.56;102830.28;5134275;27;20034;-40
2021/04/24 10:24:09;;;;;;;4.32;2.42;;;;;;;12.05;42.01;102836.66;5134619;27;20042;-40
2021/04/24 10:26:36;;;;;;;3.20;2.50;;;;;;;12.10;42.64;102826.94;5135747;27;20075;-40
2021/04/24 10:29:02;;;;;;;3.72;2.25;;;;;;;12.50;41.79;102821.06;5134754;27;20119;-40
2021/04/24 10:31:29;;;;;;;2.47;2.00;;;;;;;12.55;40.61;102822.16;5134945;27;20391;-40
2021/04/24 10:33:57;;;;;;;4.35;2.53;;;;;;;12.57;41.28;102809.19;5134803;27;20409;-40
2021/04/24 10:36:22;;;;;;;6.75;2.47;;;;;;;12.57;40.58;102817.34;5134719;27;20364;-40
2021/04/24 10:38:49;;;;;;;4.18;2.38;;;;;;;12.59;41.31;102812.56;5135093;27;20038;-40
2021/04/24 10:41:25;;;;;;;3.50;2.15;;;;;;;12.59;40.37;102809.88;5135683;27;20047;-40
2021/04/24 10:44:01;;;;;;;2.38;1.83;;;;;;;12.73;40.36;102816.22;5135364;27;20059;-41
2021/04/24 10:46:27;;;;;;;;;;;;;;;12.86;41.14;102810.06;5135781;27;20038;-40
2021/04/24 10:49:15;;;;;;;4.83;2.23;;;;;;;12.76;40.90;102807.69;5134982;27;20343;-41
2021/04/24 10:51:55;;;;;;;3.72;1.75;;;;;;;12.97;39.80;102812.19;5134939;27;20019;-40
2021/04/24 10:54:21;;;;;;;3.90;1.90;;;;;;;13.14;38.49;102802.72;5134821;27;20471;-40
2021/04/24 10:56:47;;;;;;;3.67;1.70;;;;;;;13.09;37.69;102793.50;5134750;27;20083;-40
2021/04/24 10:59:31;;;;;;;2.00;1.50;;;;;;;13.03;38.13;102810.56;5134504;27;20481;-40
2021/04/24 11:02:07;;;;;;;2.83;1.80;;;;;;;12.91;37.67;102802.16;5135024;27;20047;-40
2021/04/24 11:04:49;;;;;;;5.18;1.92;;;;;;;12.95;38.37;102805.31;5135154;27;20023;-40
2021/04/24 11:07:18;;;;;;;3.63;2.00;;;;;;;12.84;38.18;102801.28;5134504;27;20106;-40
2021/04/24 11:09:45;;;;;;;2.92;2.00;;;;;;;12.89;37.92;102798.81;5134377;27;20581;-40
2021/04/24 11:12:11;;;;;;;3.95;1.60;;;;;;;12.94;37.94;102785.47;5134070;27;20027;-40
2021/04/24 11:14:40;;;;;;;4.38;1.75;;;;;;;13.01;36.90;102783.63;5134265;27;20118;-40
2021/04/24 11:17:08;;;;;;;4.50;2.10;;;;;;;13.26;40.04;102783.97;5134424;27;20019;-40
2021/04/24 11:19:45;;;;;;;3.28;1.90;;;;;;;13.30;37.52;102776.28;5133909;27;20027;-40
2021/04/24 11:22:29;;;;;;;2.97;2.25;;;;;;;13.19;36.73;102784.97;5134437;27;20062;-40
2021/04/24 11:25:14;;;;;;;5.10;2.30;;;;;;;13.15;36.53;102777.22;5133929;28;20031;-40
2021/04/24 11:28:08;;;;;;;3.80;2.50;;;;;;;13.38;36.71;102776.13;5132396;28;20038;-40